sensor_id;sensor_type;location;lat;lon;timestamp;P1;durP1;ratioP1;P2;durP2;ratioP2
28459;SDS011;32528;45.712;9.192;2023-12-22T00:00:01;14.25;;;6.68;;
28459;SDS011;32528;45.712;9.192;2023-12-22T00:02:05;13.75;;;7.18;;
28459;SDS011;32528;45.712;9.192;2023-12-22T00:04:05;12.48;;;6.78;;
28459;SDS011;32528;45.712;9.192;2023-12-22T00:06:07;18.13;;;7.75;;
28459;SDS011;32528;45.712;9.192;2023-12-22T00:08:07;15.30;;;7.40;;
28459;SDS011;32528;45.712;9.192;2023-12-22T00:10:08;15.15;;;7.20;;
28459;SDS011;32528;45.712;9.192;2023-12-22T00:12:09;12.77;;;7.13;;
28459;SDS011;32528;45.712;9.192;2023-12-22T00:14:10;15.95;;;7.22;;
28459;SDS011;32528;45.712;9.192;2023-12-22T00:16:11;13.70;;;7.35;;
28459;SDS011;32528;45.712;9.192;2023-12-22T00:18:12;16.90;;;8.80;;
28459;SDS011;32528;45.712;9.192;2023-12-22T00:20:13;20.13;;;6.95;;
28459;SDS011;32528;45.712;9.192;2023-12-22T00:22:14;16.58;;;7.40;;
28459;SDS011;32528;45.712;9.192;2023-12-22T00:24:15;15.35;;;8.38;;
28459;SDS011;32528;45.712;9.192;2023-12-22T00:26:15;15.40;;;7.25;;
28459;SDS011;32528;45.712;9.192;2023-12-22T00:28:16;12.38;;;5.65;;
28459;SDS011;32528;45.712;9.192;2023-12-22T00:30:17;12.68;;;6.82;;
28459;SDS011;32528;45.712;9.192;2023-12-22T00:32:18;10.63;;;5.20;;
28459;SDS011;32528;45.712;9.192;2023-12-22T00:34:18;11.43;;;4.78;;
28459;SDS011;32528;45.712;9.192;2023-12-22T00:36:19;24.95;;;8.10;;
28459;SDS011;32528;45.712;9.192;2023-12-22T00:38:24;16.75;;;8.13;;
28459;SDS011;32528;45.712;9.192;2023-12-22T00:40:25;12.25;;;6.55;;
28459;SDS011;32528;45.712;9.192;2023-12-22T00:42:25;17.63;;;6.80;;
28459;SDS011;32528;45.712;9.192;2023-12-22T00:44:26;11.88;;;5.88;;
28459;SDS011;32528;45.712;9.192;2023-12-22T00:46:29;12.23;;;7.18;;
28459;SDS011;32528;45.712;9.192;2023-12-22T00:48:29;11.85;;;6.40;;
28459;SDS011;32528;45.712;9.192;2023-12-22T00:50:30;14.05;;;7.05;;
28459;SDS011;32528;45.712;9.192;2023-12-22T00:52:31;13.02;;;5.78;;
28459;SDS011;32528;45.712;9.192;2023-12-22T00:54:32;9.23;;;5.90;;
28459;SDS011;32528;45.712;9.192;2023-12-22T00:56:33;14.23;;;5.70;;
28459;SDS011;32528;45.712;9.192;2023-12-22T00:58:33;13.55;;;6.70;;
28459;SDS011;32528;45.712;9.192;2023-12-22T01:00:34;14.32;;;7.65;;
28459;SDS011;32528;45.712;9.192;2023-12-22T01:02:35;16.45;;;7.57;;
28459;SDS011;32528;45.712;9.192;2023-12-22T01:04:35;12.65;;;6.43;;
28459;SDS011;32528;45.712;9.192;2023-12-22T01:06:37;10.10;;;5.35;;
28459;SDS011;32528;45.712;9.192;2023-12-22T01:08:39;11.23;;;4.18;;
28459;SDS011;32528;45.712;9.192;2023-12-22T01:10:39;8.90;;;3.97;;
28459;SDS011;32528;45.712;9.192;2023-12-22T01:12:40;8.63;;;5.03;;
28459;SDS011;32528;45.712;9.192;2023-12-22T01:14:41;7.30;;;4.95;;
28459;SDS011;32528;45.712;9.192;2023-12-22T01:16:45;10.55;;;5.18;;
28459;SDS011;32528;45.712;9.192;2023-12-22T01:18:45;9.82;;;4.78;;
28459;SDS011;32528;45.712;9.192;2023-12-22T01:20:46;10.75;;;5.60;;
28459;SDS011;32528;45.712;9.192;2023-12-22T01:22:47;12.73;;;5.63;;
28459;SDS011;32528;45.712;9.192;2023-12-22T01:24:48;19.33;;;5.65;;
28459;SDS011;32528;45.712;9.192;2023-12-22T01:26:49;9.88;;;5.20;;
28459;SDS011;32528;45.712;9.192;2023-12-22T01:28:49;10.77;;;5.05;;
28459;SDS011;32528;45.712;9.192;2023-12-22T01:30:50;9.43;;;4.45;;
28459;SDS011;32528;45.712;9.192;2023-12-22T01:32:51;16.42;;;5.38;;
28459;SDS011;32528;45.712;9.192;2023-12-22T01:34:52;9.90;;;5.20;;
28459;SDS011;32528;45.712;9.192;2023-12-22T01:36:52;8.75;;;4.10;;
28459;SDS011;32528;45.712;9.192;2023-12-22T01:38:54;7.25;;;3.85;;
28459;SDS011;32528;45.712;9.192;2023-12-22T01:40:54;11.55;;;4.45;;
28459;SDS011;32528;45.712;9.192;2023-12-22T01:42:55;8.30;;;4.55;;
28459;SDS011;32528;45.712;9.192;2023-12-22T01:44:56;9.10;;;4.05;;
28459;SDS011;32528;45.712;9.192;2023-12-22T01:46:56;9.40;;;4.80;;
28459;SDS011;32528;45.712;9.192;2023-12-22T01:48:58;10.52;;;5.20;;
28459;SDS011;32528;45.712;9.192;2023-12-22T01:51:01;7.28;;;4.15;;
28459;SDS011;32528;45.712;9.192;2023-12-22T01:53:03;11.02;;;4.80;;
28459;SDS011;32528;45.712;9.192;2023-12-22T01:55:04;9.15;;;3.75;;
28459;SDS011;32528;45.712;9.192;2023-12-22T01:57:07;8.63;;;4.25;;
28459;SDS011;32528;45.712;9.192;2023-12-22T01:59:09;9.77;;;4.68;;
28459;SDS011;32528;45.712;9.192;2023-12-22T02:01:11;15.95;;;4.10;;
28459;SDS011;32528;45.712;9.192;2023-12-22T02:03:13;7.13;;;3.13;;
28459;SDS011;32528;45.712;9.192;2023-12-22T02:05:14;8.40;;;4.05;;
28459;SDS011;32528;45.712;9.192;2023-12-22T02:07:15;7.10;;;3.92;;
28459;SDS011;32528;45.712;9.192;2023-12-22T02:09:16;12.25;;;8.27;;
28459;SDS011;32528;45.712;9.192;2023-12-22T02:11:17;9.77;;;4.97;;
28459;SDS011;32528;45.712;9.192;2023-12-22T02:13:18;9.10;;;4.45;;
28459;SDS011;32528;45.712;9.192;2023-12-22T02:15:19;8.13;;;4.15;;
28459;SDS011;32528;45.712;9.192;2023-12-22T02:21:58;9.73;;;4.82;;
28459;SDS011;32528;45.712;9.192;2023-12-22T02:24:05;12.52;;;3.92;;
28459;SDS011;32528;45.712;9.192;2023-12-22T02:26:10;7.22;;;3.92;;
28459;SDS011;32528;45.712;9.192;2023-12-22T02:28:25;8.85;;;4.15;;
28459;SDS011;32528;45.712;9.192;2023-12-22T02:30:31;6.47;;;3.75;;
28459;SDS011;32528;45.712;9.192;2023-12-22T02:32:38;7.55;;;3.78;;
28459;SDS011;32528;45.712;9.192;2023-12-22T02:34:42;9.60;;;3.38;;
28459;SDS011;32528;45.712;9.192;2023-12-22T02:36:46;7.63;;;4.50;;
28459;SDS011;32528;45.712;9.192;2023-12-22T02:38:49;8.48;;;3.70;;
28459;SDS011;32528;45.712;9.192;2023-12-22T02:40:52;9.07;;;3.33;;
28459;SDS011;32528;45.712;9.192;2023-12-22T02:42:53;7.75;;;4.03;;
28459;SDS011;32528;45.712;9.192;2023-12-22T02:44:54;5.80;;;2.83;;
28459;SDS011;32528;45.712;9.192;2023-12-22T02:46:54;10.82;;;3.35;;
28459;SDS011;32528;45.712;9.192;2023-12-22T02:48:55;6.40;;;4.00;;
28459;SDS011;32528;45.712;9.192;2023-12-22T02:50:56;6.05;;;3.13;;
28459;SDS011;32528;45.712;9.192;2023-12-22T02:52:57;4.85;;;2.78;;
28459;SDS011;32528;45.712;9.192;2023-12-22T02:54:57;6.10;;;3.08;;
28459;SDS011;32528;45.712;9.192;2023-12-22T02:56:58;8.25;;;3.72;;
28459;SDS011;32528;45.712;9.192;2023-12-22T02:59:00;7.18;;;3.13;;
28459;SDS011;32528;45.712;9.192;2023-12-22T03:01:01;7.70;;;3.42;;
28459;SDS011;32528;45.712;9.192;2023-12-22T03:03:02;11.98;;;3.17;;
28459;SDS011;32528;45.712;9.192;2023-12-22T03:05:03;6.47;;;3.13;;
28459;SDS011;32528;45.712;9.192;2023-12-22T03:07:05;6.55;;;2.88;;
28459;SDS011;32528;45.712;9.192;2023-12-22T03:09:05;9.98;;;3.72;;
28459;SDS011;32528;45.712;9.192;2023-12-22T03:11:06;4.97;;;2.88;;
28459;SDS011;32528;45.712;9.192;2023-12-22T03:13:07;6.40;;;3.08;;
28459;SDS011;32528;45.712;9.192;2023-12-22T03:15:08;6.22;;;2.72;;
28459;SDS011;32528;45.712;9.192;2023-12-22T03:17:09;10.13;;;3.42;;
28459;SDS011;32528;45.712;9.192;2023-12-22T03:19:11;6.85;;;3.28;;
28459;SDS011;32528;45.712;9.192;2023-12-22T03:21:18;10.77;;;2.58;;
28459;SDS011;32528;45.712;9.192;2023-12-22T03:23:19;4.82;;;2.33;;
28459;SDS011;32528;45.712;9.192;2023-12-22T03:25:20;5.40;;;2.50;;
28459;SDS011;32528;45.712;9.192;2023-12-22T03:27:20;6.55;;;2.42;;
28459;SDS011;32528;45.712;9.192;2023-12-22T03:29:21;8.70;;;3.03;;
28459;SDS011;32528;45.712;9.192;2023-12-22T03:31:22;3.95;;;2.05;;
28459;SDS011;32528;45.712;9.192;2023-12-22T03:33:23;5.05;;;1.85;;
28459;SDS011;32528;45.712;9.192;2023-12-22T03:35:23;3.40;;;1.90;;
28459;SDS011;32528;45.712;9.192;2023-12-22T03:37:24;4.05;;;1.85;;
28459;SDS011;32528;45.712;9.192;2023-12-22T03:39:25;2.38;;;1.25;;
28459;SDS011;32528;45.712;9.192;2023-12-22T03:41:26;2.97;;;1.75;;
28459;SDS011;32528;45.712;9.192;2023-12-22T03:43:27;3.05;;;1.33;;
28459;SDS011;32528;45.712;9.192;2023-12-22T03:45:28;2.95;;;1.50;;
28459;SDS011;32528;45.712;9.192;2023-12-22T03:47:29;3.53;;;1.40;;
28459;SDS011;32528;45.712;9.192;2023-12-22T03:49:30;3.75;;;1.58;;
28459;SDS011;32528;45.712;9.192;2023-12-22T03:51:30;2.88;;;1.23;;
28459;SDS011;32528;45.712;9.192;2023-12-22T03:53:31;4.43;;;1.10;;
28459;SDS011;32528;45.712;9.192;2023-12-22T03:55:32;1.40;;;0.70;;
28459;SDS011;32528;45.712;9.192;2023-12-22T03:57:32;3.83;;;0.90;;
28459;SDS011;32528;45.712;9.192;2023-12-22T03:59:33;1.10;;;0.60;;
28459;SDS011;32528;45.712;9.192;2023-12-22T04:01:34;0.73;;;0.57;;
28459;SDS011;32528;45.712;9.192;2023-12-22T04:03:34;2.05;;;0.70;;
28459;SDS011;32528;45.712;9.192;2023-12-22T04:05:35;2.17;;;0.95;;
28459;SDS011;32528;45.712;9.192;2023-12-22T04:07:36;2.30;;;0.95;;
28459;SDS011;32528;45.712;9.192;2023-12-22T04:09:37;2.42;;;0.95;;
28459;SDS011;32528;45.712;9.192;2023-12-22T04:13:40;2.38;;;1.05;;
28459;SDS011;32528;45.712;9.192;2023-12-22T04:15:41;0.82;;;0.70;;
28459;SDS011;32528;45.712;9.192;2023-12-22T04:17:41;1.80;;;0.80;;
28459;SDS011;32528;45.712;9.192;2023-12-22T04:19:42;2.53;;;1.00;;
28459;SDS011;32528;45.712;9.192;2023-12-22T04:21:43;2.53;;;0.90;;
28459;SDS011;32528;45.712;9.192;2023-12-22T04:23:43;0.60;;;0.50;;
28459;SDS011;32528;45.712;9.192;2023-12-22T04:25:44;1.17;;;0.65;;
28459;SDS011;32528;45.712;9.192;2023-12-22T04:27:45;1.60;;;0.65;;
28459;SDS011;32528;45.712;9.192;2023-12-22T04:29:46;0.50;;;0.50;;
28459;SDS011;32528;45.712;9.192;2023-12-22T04:31:46;1.05;;;0.60;;
28459;SDS011;32528;45.712;9.192;2023-12-22T04:33:47;1.60;;;0.77;;
28459;SDS011;32528;45.712;9.192;2023-12-22T04:35:48;0.38;;;0.38;;
28459;SDS011;32528;45.712;9.192;2023-12-22T04:37:48;1.40;;;0.65;;
28459;SDS011;32528;45.712;9.192;2023-12-22T04:39:49;0.85;;;0.65;;
28459;SDS011;32528;45.712;9.192;2023-12-22T04:41:50;0.40;;;0.40;;
28459;SDS011;32528;45.712;9.192;2023-12-22T04:43:51;1.50;;;0.35;;
28459;SDS011;32528;45.712;9.192;2023-12-22T04:45:51;2.58;;;0.60;;
28459;SDS011;32528;45.712;9.192;2023-12-22T04:47:52;0.75;;;0.40;;
28459;SDS011;32528;45.712;9.192;2023-12-22T04:49:53;1.13;;;0.60;;
28459;SDS011;32528;45.712;9.192;2023-12-22T04:51:53;0.95;;;0.50;;
28459;SDS011;32528;45.712;9.192;2023-12-22T04:53:54;1.95;;;0.52;;
28459;SDS011;32528;45.712;9.192;2023-12-22T04:55:55;0.28;;;0.28;;
28459;SDS011;32528;45.712;9.192;2023-12-22T04:57:56;0.88;;;0.55;;
28459;SDS011;32528;45.712;9.192;2023-12-22T04:59:57;3.50;;;0.40;;
28459;SDS011;32528;45.712;9.192;2023-12-22T05:01:57;1.38;;;0.60;;
28459;SDS011;32528;45.712;9.192;2023-12-22T05:03:58;0.68;;;0.50;;
28459;SDS011;32528;45.712;9.192;2023-12-22T05:05:59;0.80;;;0.40;;
28459;SDS011;32528;45.712;9.192;2023-12-22T05:08:00;1.77;;;0.30;;
28459;SDS011;32528;45.712;9.192;2023-12-22T05:10:00;1.27;;;0.32;;
28459;SDS011;32528;45.712;9.192;2023-12-22T05:12:01;5.07;;;0.77;;
28459;SDS011;32528;45.712;9.192;2023-12-22T05:14:03;5.60;;;0.40;;
28459;SDS011;32528;45.712;9.192;2023-12-22T05:16:04;0.30;;;0.30;;
28459;SDS011;32528;45.712;9.192;2023-12-22T05:18:05;0.30;;;0.30;;
28459;SDS011;32528;45.712;9.192;2023-12-22T05:20:06;0.20;;;0.20;;
28459;SDS011;32528;45.712;9.192;2023-12-22T05:22:07;2.90;;;0.55;;
28459;SDS011;32528;45.712;9.192;2023-12-22T05:24:08;0.30;;;0.30;;
28459;SDS011;32528;45.712;9.192;2023-12-22T05:26:09;0.43;;;0.30;;
28459;SDS011;32528;45.712;9.192;2023-12-22T05:28:09;0.20;;;0.20;;
28459;SDS011;32528;45.712;9.192;2023-12-22T05:30:10;0.30;;;0.30;;
28459;SDS011;32528;45.712;9.192;2023-12-22T05:32:12;6.40;;;0.57;;
28459;SDS011;32528;45.712;9.192;2023-12-22T05:34:12;0.20;;;0.20;;
28459;SDS011;32528;45.712;9.192;2023-12-22T05:36:13;0.60;;;0.50;;
28459;SDS011;32528;45.712;9.192;2023-12-22T05:38:14;2.53;;;0.20;;
28459;SDS011;32528;45.712;9.192;2023-12-22T05:40:15;0.55;;;0.30;;
28459;SDS011;32528;45.712;9.192;2023-12-22T05:42:16;1.88;;;0.40;;
28459;SDS011;32528;45.712;9.192;2023-12-22T05:44:17;0.45;;;0.40;;
28459;SDS011;32528;45.712;9.192;2023-12-22T05:46:17;0.40;;;0.30;;
28459;SDS011;32528;45.712;9.192;2023-12-22T05:48:18;3.55;;;0.40;;
28459;SDS011;32528;45.712;9.192;2023-12-22T05:50:21;0.40;;;0.20;;
28459;SDS011;32528;45.712;9.192;2023-12-22T05:52:22;0.32;;;0.32;;
28459;SDS011;32528;45.712;9.192;2023-12-22T05:54:23;0.30;;;0.30;;
28459;SDS011;32528;45.712;9.192;2023-12-22T05:56:25;1.95;;;0.40;;
28459;SDS011;32528;45.712;9.192;2023-12-22T05:58:26;5.70;;;0.43;;
28459;SDS011;32528;45.712;9.192;2023-12-22T06:00:26;1.65;;;0.38;;
28459;SDS011;32528;45.712;9.192;2023-12-22T06:02:27;1.55;;;0.30;;
28459;SDS011;32528;45.712;9.192;2023-12-22T06:04:28;0.32;;;0.25;;
28459;SDS011;32528;45.712;9.192;2023-12-22T06:06:28;0.40;;;0.40;;
28459;SDS011;32528;45.712;9.192;2023-12-22T06:08:30;0.70;;;0.40;;
28459;SDS011;32528;45.712;9.192;2023-12-22T06:10:30;1.10;;;0.40;;
28459;SDS011;32528;45.712;9.192;2023-12-22T06:12:31;0.30;;;0.30;;
28459;SDS011;32528;45.712;9.192;2023-12-22T06:14:32;2.53;;;0.35;;
28459;SDS011;32528;45.712;9.192;2023-12-22T06:16:35;1.35;;;0.40;;
28459;SDS011;32528;45.712;9.192;2023-12-22T06:18:35;0.40;;;0.40;;
28459;SDS011;32528;45.712;9.192;2023-12-22T06:20:36;1.85;;;0.35;;
28459;SDS011;32528;45.712;9.192;2023-12-22T06:22:37;0.32;;;0.30;;
28459;SDS011;32528;45.712;9.192;2023-12-22T06:24:37;1.15;;;0.50;;
28459;SDS011;32528;45.712;9.192;2023-12-22T06:26:38;4.45;;;2.03;;
28459;SDS011;32528;45.712;9.192;2023-12-22T06:28:39;3.58;;;0.30;;
28459;SDS011;32528;45.712;9.192;2023-12-22T06:30:40;0.43;;;0.38;;
28459;SDS011;32528;45.712;9.192;2023-12-22T06:32:42;0.32;;;0.22;;
28459;SDS011;32528;45.712;9.192;2023-12-22T06:34:43;0.55;;;0.35;;
28459;SDS011;32528;45.712;9.192;2023-12-22T06:36:43;0.75;;;0.50;;
28459;SDS011;32528;45.712;9.192;2023-12-22T06:38:44;0.47;;;0.30;;
28459;SDS011;32528;45.712;9.192;2023-12-22T06:40:45;0.20;;;0.20;;
28459;SDS011;32528;45.712;9.192;2023-12-22T06:42:47;0.93;;;0.38;;
28459;SDS011;32528;45.712;9.192;2023-12-22T06:44:47;2.67;;;0.32;;
28459;SDS011;32528;45.712;9.192;2023-12-22T06:46:49;3.50;;;1.23;;
28459;SDS011;32528;45.712;9.192;2023-12-22T06:48:49;0.22;;;0.22;;
28459;SDS011;32528;45.712;9.192;2023-12-22T06:50:50;0.20;;;0.20;;
28459;SDS011;32528;45.712;9.192;2023-12-22T06:52:51;4.30;;;0.90;;
28459;SDS011;32528;45.712;9.192;2023-12-22T06:54:52;1.70;;;0.70;;
28459;SDS011;32528;45.712;9.192;2023-12-22T06:56:52;0.30;;;0.30;;
28459;SDS011;32528;45.712;9.192;2023-12-22T06:58:54;0.50;;;0.40;;
28459;SDS011;32528;45.712;9.192;2023-12-22T07:00:57;1.60;;;0.50;;
28459;SDS011;32528;45.712;9.192;2023-12-22T07:02:58;6.22;;;0.47;;
28459;SDS011;32528;45.712;9.192;2023-12-22T07:07:22;0.47;;;0.40;;
28459;SDS011;32528;45.712;9.192;2023-12-22T07:11:24;1.48;;;0.57;;
28459;SDS011;32528;45.712;9.192;2023-12-22T07:13:24;2.13;;;0.57;;
28459;SDS011;32528;45.712;9.192;2023-12-22T07:15:25;3.20;;;1.55;;
28459;SDS011;32528;45.712;9.192;2023-12-22T07:17:26;13.25;;;0.80;;
28459;SDS011;32528;45.712;9.192;2023-12-22T07:19:26;8.88;;;1.60;;
28459;SDS011;32528;45.712;9.192;2023-12-22T07:21:27;4.10;;;1.30;;
28459;SDS011;32528;45.712;9.192;2023-12-22T07:23:28;3.55;;;0.82;;
28459;SDS011;32528;45.712;9.192;2023-12-22T07:25:29;2.88;;;1.20;;
28459;SDS011;32528;45.712;9.192;2023-12-22T07:27:29;3.10;;;1.02;;
28459;SDS011;32528;45.712;9.192;2023-12-22T07:29:30;4.50;;;1.17;;
28459;SDS011;32528;45.712;9.192;2023-12-22T07:31:31;5.30;;;1.10;;
28459;SDS011;32528;45.712;9.192;2023-12-22T07:33:31;2.60;;;1.00;;
28459;SDS011;32528;45.712;9.192;2023-12-22T07:35:32;5.32;;;1.00;;
28459;SDS011;32528;45.712;9.192;2023-12-22T07:37:35;1.10;;;0.55;;
28459;SDS011;32528;45.712;9.192;2023-12-22T07:39:35;0.75;;;0.43;;
28459;SDS011;32528;45.712;9.192;2023-12-22T07:41:36;4.35;;;1.05;;
28459;SDS011;32528;45.712;9.192;2023-12-22T07:43:37;5.72;;;0.80;;
28459;SDS011;32528;45.712;9.192;2023-12-22T07:45:38;17.58;;;1.00;;
28459;SDS011;32528;45.712;9.192;2023-12-22T07:47:38;1.20;;;0.50;;
28459;SDS011;32528;45.712;9.192;2023-12-22T07:49:39;2.33;;;0.73;;
28459;SDS011;32528;45.712;9.192;2023-12-22T07:51:40;4.53;;;1.30;;
28459;SDS011;32528;45.712;9.192;2023-12-22T07:53:41;1.83;;;0.70;;
28459;SDS011;32528;45.712;9.192;2023-12-22T07:55:42;1.08;;;0.82;;
28459;SDS011;32528;45.712;9.192;2023-12-22T07:57:44;1.33;;;0.88;;
28459;SDS011;32528;45.712;9.192;2023-12-22T07:59:45;1.75;;;0.68;;
28459;SDS011;32528;45.712;9.192;2023-12-22T08:01:46;3.10;;;0.65;;
28459;SDS011;32528;45.712;9.192;2023-12-22T08:03:46;0.47;;;0.40;;
28459;SDS011;32528;45.712;9.192;2023-12-22T08:05:47;2.35;;;1.58;;
28459;SDS011;32528;45.712;9.192;2023-12-22T08:07:48;0.43;;;0.30;;
28459;SDS011;32528;45.712;9.192;2023-12-22T08:09:48;0.98;;;0.50;;
28459;SDS011;32528;45.712;9.192;2023-12-22T08:11:49;1.08;;;0.50;;
28459;SDS011;32528;45.712;9.192;2023-12-22T08:13:52;2.17;;;0.50;;
28459;SDS011;32528;45.712;9.192;2023-12-22T08:15:53;0.73;;;0.40;;
28459;SDS011;32528;45.712;9.192;2023-12-22T08:17:54;0.20;;;0.20;;
28459;SDS011;32528;45.712;9.192;2023-12-22T08:19:55;0.57;;;0.38;;
28459;SDS011;32528;45.712;9.192;2023-12-22T08:21:57;0.32;;;0.20;;
28459;SDS011;32528;45.712;9.192;2023-12-22T08:23:57;1.27;;;0.30;;
28459;SDS011;32528;45.712;9.192;2023-12-22T08:25:58;0.35;;;0.22;;
28459;SDS011;32528;45.712;9.192;2023-12-22T08:27:59;1.33;;;0.50;;
28459;SDS011;32528;45.712;9.192;2023-12-22T08:30:01;0.57;;;0.38;;
28459;SDS011;32528;45.712;9.192;2023-12-22T08:32:03;0.20;;;0.20;;
28459;SDS011;32528;45.712;9.192;2023-12-22T08:34:04;0.80;;;0.22;;
28459;SDS011;32528;45.712;9.192;2023-12-22T08:36:05;0.52;;;0.30;;
28459;SDS011;32528;45.712;9.192;2023-12-22T08:38:06;2.00;;;0.73;;
28459;SDS011;32528;45.712;9.192;2023-12-22T08:40:07;0.20;;;0.20;;
28459;SDS011;32528;45.712;9.192;2023-12-22T08:42:08;0.32;;;0.30;;
28459;SDS011;32528;45.712;9.192;2023-12-22T08:44:09;1.15;;;0.40;;
28459;SDS011;32528;45.712;9.192;2023-12-22T08:46:10;0.22;;;0.22;;
28459;SDS011;32528;45.712;9.192;2023-12-22T08:48:12;0.20;;;0.20;;
28459;SDS011;32528;45.712;9.192;2023-12-22T08:50:12;6.70;;;0.30;;
28459;SDS011;32528;45.712;9.192;2023-12-22T08:52:13;1.35;;;0.47;;
28459;SDS011;32528;45.712;9.192;2023-12-22T08:54:14;0.20;;;0.20;;
28459;SDS011;32528;45.712;9.192;2023-12-22T08:56:15;3.35;;;0.47;;
28459;SDS011;32528;45.712;9.192;2023-12-22T08:58:17;1.05;;;0.60;;
28459;SDS011;32528;45.712;9.192;2023-12-22T09:00:18;2.13;;;0.85;;
28459;SDS011;32528;45.712;9.192;2023-12-22T09:02:19;4.32;;;0.52;;
28459;SDS011;32528;45.712;9.192;2023-12-22T09:04:19;2.72;;;0.70;;
28459;SDS011;32528;45.712;9.192;2023-12-22T09:06:24;1.08;;;0.60;;
28459;SDS011;32528;45.712;9.192;2023-12-22T09:08:25;0.32;;;0.32;;
28459;SDS011;32528;45.712;9.192;2023-12-22T09:10:26;0.52;;;0.38;;
28459;SDS011;32528;45.712;9.192;2023-12-22T09:12:27;0.85;;;0.50;;
28459;SDS011;32528;45.712;9.192;2023-12-22T09:14:28;0.95;;;0.28;;
28459;SDS011;32528;45.712;9.192;2023-12-22T09:16:29;6.38;;;0.40;;
28459;SDS011;32528;45.712;9.192;2023-12-22T09:18:29;2.15;;;0.95;;
28459;SDS011;32528;45.712;9.192;2023-12-22T09:20:31;3.63;;;0.40;;
28459;SDS011;32528;45.712;9.192;2023-12-22T09:22:32;8.02;;;0.32;;
28459;SDS011;32528;45.712;9.192;2023-12-22T09:24:32;1.25;;;0.50;;
28459;SDS011;32528;45.712;9.192;2023-12-22T09:26:33;0.40;;;0.28;;
28459;SDS011;32528;45.712;9.192;2023-12-22T09:28:34;0.20;;;0.20;;
28459;SDS011;32528;45.712;9.192;2023-12-22T09:30:35;2.17;;;0.30;;
28459;SDS011;32528;45.712;9.192;2023-12-22T09:32:35;3.10;;;0.70;;
28459;SDS011;32528;45.712;9.192;2023-12-22T09:34:36;4.35;;;0.60;;
28459;SDS011;32528;45.712;9.192;2023-12-22T09:36:37;0.95;;;0.40;;
28459;SDS011;32528;45.712;9.192;2023-12-22T09:38:38;0.30;;;0.30;;
28459;SDS011;32528;45.712;9.192;2023-12-22T09:40:39;0.55;;;0.50;;
28459;SDS011;32528;45.712;9.192;2023-12-22T09:42:40;1.10;;;0.50;;
28459;SDS011;32528;45.712;9.192;2023-12-22T09:44:42;0.43;;;0.30;;
28459;SDS011;32528;45.712;9.192;2023-12-22T09:46:43;1.70;;;0.47;;
28459;SDS011;32528;45.712;9.192;2023-12-22T09:48:45;0.20;;;0.20;;
28459;SDS011;32528;45.712;9.192;2023-12-22T09:50:46;1.15;;;0.40;;
28459;SDS011;32528;45.712;9.192;2023-12-22T09:52:47;1.17;;;0.40;;
28459;SDS011;32528;45.712;9.192;2023-12-22T09:54:48;1.00;;;0.30;;
28459;SDS011;32528;45.712;9.192;2023-12-22T09:56:49;3.15;;;0.47;;
28459;SDS011;32528;45.712;9.192;2023-12-22T09:58:51;2.42;;;0.43;;
28459;SDS011;32528;45.712;9.192;2023-12-22T10:00:53;0.80;;;0.30;;
28459;SDS011;32528;45.712;9.192;2023-12-22T10:02:55;0.63;;;0.47;;
28459;SDS011;32528;45.712;9.192;2023-12-22T10:04:55;2.40;;;0.60;;
28459;SDS011;32528;45.712;9.192;2023-12-22T10:06:58;1.38;;;0.47;;
28459;SDS011;32528;45.712;9.192;2023-12-22T10:09:01;0.55;;;0.30;;
28459;SDS011;32528;45.712;9.192;2023-12-22T10:11:05;2.30;;;0.93;;
28459;SDS011;32528;45.712;9.192;2023-12-22T10:13:08;6.68;;;0.77;;
28459;SDS011;32528;45.712;9.192;2023-12-22T10:15:11;0.60;;;0.35;;
28459;SDS011;32528;45.712;9.192;2023-12-22T10:17:13;0.22;;;0.22;;
28459;SDS011;32528;45.712;9.192;2023-12-22T10:19:15;0.20;;;0.20;;
28459;SDS011;32528;45.712;9.192;2023-12-22T10:21:15;0.70;;;0.40;;
28459;SDS011;32528;45.712;9.192;2023-12-22T10:23:16;0.43;;;0.30;;
28459;SDS011;32528;45.712;9.192;2023-12-22T10:25:20;0.40;;;0.30;;
28459;SDS011;32528;45.712;9.192;2023-12-22T10:27:22;0.43;;;0.30;;
28459;SDS011;32528;45.712;9.192;2023-12-22T10:29:23;0.88;;;0.40;;
28459;SDS011;32528;45.712;9.192;2023-12-22T10:31:24;0.63;;;0.30;;
28459;SDS011;32528;45.712;9.192;2023-12-22T10:33:25;0.22;;;0.22;;
28459;SDS011;32528;45.712;9.192;2023-12-22T10:35:26;0.10;;;0.10;;
28459;SDS011;32528;45.712;9.192;2023-12-22T10:37:27;0.52;;;0.28;;
28459;SDS011;32528;45.712;9.192;2023-12-22T10:39:29;0.20;;;0.20;;
28459;SDS011;32528;45.712;9.192;2023-12-22T10:41:30;0.98;;;0.40;;
28459;SDS011;32528;45.712;9.192;2023-12-22T10:43:38;0.25;;;0.25;;
28459;SDS011;32528;45.712;9.192;2023-12-22T10:45:40;0.32;;;0.30;;
28459;SDS011;32528;45.712;9.192;2023-12-22T10:47:41;0.32;;;0.20;;
28459;SDS011;32528;45.712;9.192;2023-12-22T10:49:42;3.38;;;0.30;;
28459;SDS011;32528;45.712;9.192;2023-12-22T10:51:46;0.32;;;0.20;;
28459;SDS011;32528;45.712;9.192;2023-12-22T10:53:47;0.20;;;0.20;;
28459;SDS011;32528;45.712;9.192;2023-12-22T10:55:48;0.38;;;0.30;;
28459;SDS011;32528;45.712;9.192;2023-12-22T10:57:50;1.02;;;0.30;;
28459;SDS011;32528;45.712;9.192;2023-12-22T10:59:51;1.15;;;0.63;;
28459;SDS011;32528;45.712;9.192;2023-12-22T11:01:52;0.98;;;0.45;;
28459;SDS011;32528;45.712;9.192;2023-12-22T11:03:57;0.57;;;0.30;;
28459;SDS011;32528;45.712;9.192;2023-12-22T11:06:01;3.92;;;1.73;;
28459;SDS011;32528;45.712;9.192;2023-12-22T11:08:04;2.33;;;0.77;;
28459;SDS011;32528;45.712;9.192;2023-12-22T11:10:11;0.28;;;0.25;;
28459;SDS011;32528;45.712;9.192;2023-12-22T11:12:13;0.20;;;0.20;;
28459;SDS011;32528;45.712;9.192;2023-12-22T11:14:15;1.45;;;0.60;;
28459;SDS011;32528;45.712;9.192;2023-12-22T11:16:17;0.28;;;0.20;;
28459;SDS011;32528;45.712;9.192;2023-12-22T11:18:18;0.20;;;0.20;;
28459;SDS011;32528;45.712;9.192;2023-12-22T11:20:21;5.53;;;0.40;;
28459;SDS011;32528;45.712;9.192;2023-12-22T11:22:24;1.17;;;0.35;;
28459;SDS011;32528;45.712;9.192;2023-12-22T11:24:26;3.40;;;0.70;;
28459;SDS011;32528;45.712;9.192;2023-12-22T11:26:29;0.30;;;0.30;;
28459;SDS011;32528;45.712;9.192;2023-12-22T11:28:31;0.30;;;0.20;;
28459;SDS011;32528;45.712;9.192;2023-12-22T11:30:33;0.55;;;0.40;;
28459;SDS011;32528;45.712;9.192;2023-12-22T11:32:36;0.30;;;0.30;;
28459;SDS011;32528;45.712;9.192;2023-12-22T11:34:39;0.45;;;0.30;;
28459;SDS011;32528;45.712;9.192;2023-12-22T11:36:42;0.30;;;0.30;;
28459;SDS011;32528;45.712;9.192;2023-12-22T11:38:45;0.20;;;0.20;;
28459;SDS011;32528;45.712;9.192;2023-12-22T11:40:48;0.55;;;0.55;;
28459;SDS011;32528;45.712;9.192;2023-12-22T11:42:52;0.30;;;0.30;;
28459;SDS011;32528;45.712;9.192;2023-12-22T11:44:54;1.00;;;0.30;;
28459;SDS011;32528;45.712;9.192;2023-12-22T11:47:05;1.48;;;0.60;;
28459;SDS011;32528;45.712;9.192;2023-12-22T11:49:06;0.70;;;0.40;;
28459;SDS011;32528;45.712;9.192;2023-12-22T11:51:13;1.83;;;0.30;;
28459;SDS011;32528;45.712;9.192;2023-12-22T11:53:20;0.10;;;0.10;;
28459;SDS011;32528;45.712;9.192;2023-12-22T11:58:20;0.30;;;0.28;;
28459;SDS011;32528;45.712;9.192;2023-12-22T12:02:37;2.33;;;0.70;;
28459;SDS011;32528;45.712;9.192;2023-12-22T12:04:40;1.20;;;0.50;;
28459;SDS011;32528;45.712;9.192;2023-12-22T12:06:41;0.22;;;0.22;;
28459;SDS011;32528;45.712;9.192;2023-12-22T12:08:42;0.43;;;0.30;;
28459;SDS011;32528;45.712;9.192;2023-12-22T12:13:03;8.85;;;0.47;;
28459;SDS011;32528;45.712;9.192;2023-12-22T12:15:13;0.82;;;0.40;;
28459;SDS011;32528;45.712;9.192;2023-12-22T12:17:23;2.83;;;1.23;;
28459;SDS011;32528;45.712;9.192;2023-12-22T12:19:24;1.85;;;0.80;;
28459;SDS011;32528;45.712;9.192;2023-12-22T12:21:25;0.98;;;0.60;;
28459;SDS011;32528;45.712;9.192;2023-12-22T12:23:26;1.23;;;0.68;;
28459;SDS011;32528;45.712;9.192;2023-12-22T12:25:29;0.45;;;0.38;;
28459;SDS011;32528;45.712;9.192;2023-12-22T12:27:30;0.20;;;0.20;;